createdAt,value
2018-12-26T08:07:53.990Z,-3.60
2018-12-26T08:10:41.976Z,-2.90
2018-12-26T08:13:29.896Z,-2.80
2018-12-26T08:16:17.923Z,-2.60
2018-12-26T08:18:46.498Z,-2.10
2018-12-26T08:21:34.523Z,-1.30
2018-12-26T08:24:22.865Z,-1.00
2018-12-26T08:26:53.620Z,-0.90
2018-12-26T08:29:42.277Z,-0.60
2018-12-26T08:32:10.969Z,-0.40
2018-12-26T08:34:59.222Z,-0.20
2018-12-26T09:37:58.958Z,-1.50
2018-12-26T09:52:38.334Z,-1.30
2018-12-26T09:58:32.291Z,-1.10
2018-12-26T10:07:20.694Z,-0.80
2018-12-26T10:10:08.706Z,-0.70
2018-12-26T10:12:56.735Z,-0.80
2018-12-26T10:19:09.334Z,-0.70
2018-12-26T10:21:57.355Z,-0.50
2018-12-26T10:27:30.737Z,-0.40
2018-12-26T10:42:29.476Z,0.00
2018-12-26T10:44:58.047Z,0.10
2018-12-26T10:47:46.324Z,0.10
2018-12-26T10:50:33.176Z,0.20
2018-12-26T10:56:26.107Z,0.40
2018-12-26T10:59:14.055Z,0.50
2018-12-26T11:02:02.158Z,0.40
2018-12-26T11:04:30.791Z,0.50
2018-12-26T11:07:18.977Z,0.50
2018-12-26T11:10:07.090Z,0.40
2018-12-26T11:12:35.814Z,0.40
2018-12-26T11:15:23.749Z,0.50
2018-12-26T11:18:11.793Z,0.50
2018-12-26T11:20:59.934Z,0.60
2018-12-26T11:23:47.903Z,0.70
2018-12-26T11:26:35.862Z,0.70
2018-12-26T11:32:28.655Z,0.90
2018-12-26T11:35:16.716Z,0.90
2018-12-26T11:38:05.838Z,0.90
2018-12-26T11:41:06.026Z,0.90
2018-12-26T11:43:43.510Z,0.90
2018-12-26T11:46:31.566Z,1.00
2018-12-26T11:49:18.735Z,1.10
2018-12-26T11:52:07.279Z,1.20
2018-12-26T11:54:55.515Z,1.30
2018-12-26T11:57:43.460Z,1.50
2018-12-26T12:00:12.210Z,1.60
2018-12-26T12:02:41.010Z,1.60
2018-12-26T12:05:29.032Z,1.70
2018-12-26T12:08:17.039Z,1.80
2018-12-26T12:11:05.179Z,1.90
2018-12-26T12:13:53.148Z,2.00
2018-12-26T12:16:41.162Z,2.10
2018-12-26T12:19:29.193Z,2.20
2018-12-26T12:22:17.227Z,2.40
2018-12-26T12:28:14.395Z,3.10
2018-12-26T12:31:02.538Z,3.50
2018-12-26T12:33:50.599Z,3.60
2018-12-26T12:36:19.374Z,3.90
2018-12-26T12:39:07.605Z,4.20
2018-12-26T12:41:36.283Z,4.80
2018-12-26T12:44:05.010Z,5.70
2018-12-26T12:46:52.926Z,6.90
2018-12-26T12:49:21.673Z,7.60
2018-12-26T12:51:50.318Z,8.10
2018-12-26T12:54:38.297Z,8.80
2018-12-26T12:57:26.369Z,9.10
2018-12-26T13:00:14.334Z,9.50
2018-12-26T13:03:02.542Z,10.50
2018-12-26T13:05:31.170Z,12.00
2018-12-26T13:08:19.214Z,12.40
2018-12-26T13:10:48.131Z,12.10
2018-12-26T13:13:36.126Z,10.80
2018-12-26T13:16:24.157Z,10.80
2018-12-26T13:19:05.508Z,10.70
2018-12-26T13:21:53.796Z,10.90
2018-12-26T13:24:41.848Z,11.40
2018-12-26T13:27:29.814Z,12.70
2018-12-26T13:30:26.453Z,12.70
2018-12-26T13:32:55.125Z,12.20
2018-12-26T13:35:23.859Z,12.90
2018-12-26T13:38:11.830Z,13.40
2018-12-26T13:40:59.789Z,13.40
2018-12-26T13:43:48.067Z,13.90
2018-12-26T13:46:36.247Z,13.80
2018-12-26T13:49:24.323Z,13.40
2018-12-26T13:52:26.521Z,13.80
2018-12-26T13:55:02.222Z,13.70
2018-12-26T13:57:30.955Z,14.40
2018-12-26T14:00:19.302Z,14.00
2018-12-26T14:02:48.075Z,13.50
2018-12-26T14:05:36.131Z,12.80
2018-12-26T14:08:24.443Z,12.30
2018-12-26T14:11:12.445Z,11.80
2018-12-26T14:13:41.105Z,12.00
2018-12-26T14:16:29.182Z,11.60
2018-12-26T14:19:17.543Z,11.60
2018-12-26T14:22:05.840Z,11.10
2018-12-26T14:25:14.150Z,11.90
2018-12-26T14:28:02.233Z,12.10
2018-12-26T14:30:50.259Z,11.30
2018-12-26T14:33:19.032Z,10.60
2018-12-26T14:38:56.734Z,11.30
2018-12-26T14:41:45.046Z,11.40
2018-12-26T14:44:13.784Z,11.30
2018-12-26T14:47:01.862Z,11.60
2018-12-26T14:50:01.765Z,11.70
2018-12-26T14:52:39.558Z,11.90
2018-12-26T14:55:08.301Z,11.90
2018-12-26T14:57:56.343Z,11.20
2018-12-26T15:00:44.404Z,9.80
2018-12-26T15:03:32.478Z,8.10
2018-12-26T15:06:20.552Z,6.60
2018-12-26T15:09:02.687Z,5.30
2018-12-26T15:11:50.739Z,4.10
2018-12-26T15:14:39.316Z,3.40
2018-12-26T15:17:27.382Z,2.60
2018-12-26T15:20:15.408Z,2.00
2018-12-26T15:23:03.530Z,1.50
2018-12-26T15:25:49.810Z,1.10
2018-12-26T15:28:37.799Z,0.70
2018-12-26T15:31:25.779Z,0.50
2018-12-26T15:34:13.758Z,0.10
2018-12-26T15:37:02.126Z,-0.30
2018-12-26T16:07:23.205Z,-1.80
2018-12-26T19:45:43.291Z,-4.00
